createdAt,value
2022-08-11T00:01:16.234Z,21.00
2022-08-11T00:03:51.363Z,20.90
2022-08-11T00:06:27.796Z,20.90
2022-08-11T00:08:57.745Z,20.90
2022-08-11T00:11:38.299Z,20.80
2022-08-11T00:14:18.021Z,20.90
2022-08-11T00:16:56.770Z,20.70
2022-08-11T00:20:13.794Z,20.70
2022-08-11T00:22:24.170Z,20.70
2022-08-11T00:24:56.197Z,20.70
2022-08-11T00:27:40.593Z,20.70
2022-08-11T00:30:13.375Z,20.60
2022-08-11T00:32:45.614Z,20.50
2022-08-11T00:35:56.294Z,20.50
2022-08-11T00:38:08.556Z,20.40
2022-08-11T00:40:44.011Z,20.50
2022-08-11T00:43:25.092Z,20.40
2022-08-11T00:46:12.404Z,20.40
2022-08-11T00:48:59.169Z,20.30
2022-08-11T00:52:03.851Z,20.20
2022-08-11T00:55:34.339Z,20.20
2022-08-11T00:58:51.136Z,20.10
2022-08-11T01:01:40.578Z,20.00
2022-08-11T01:04:55.794Z,20.00
2022-08-11T01:08:24.185Z,19.90
2022-08-11T01:11:55.891Z,19.80
2022-08-11T01:14:54.656Z,19.80
2022-08-11T01:18:23.661Z,19.70
2022-08-11T01:21:39.837Z,19.70
2022-08-11T01:24:58.048Z,19.60
2022-08-11T01:28:41.908Z,19.60
2022-08-11T01:32:05.985Z,19.60
2022-08-11T01:35:31.882Z,19.60
2022-08-11T01:38:44.477Z,19.50
2022-08-11T01:42:20.294Z,19.50
2022-08-11T01:45:23.980Z,19.50
2022-08-11T01:48:06.396Z,19.50
2022-08-11T01:50:55.277Z,19.40
2022-08-11T01:53:35.803Z,19.40
2022-08-11T01:56:24.462Z,19.40
2022-08-11T01:59:10.004Z,19.30
2022-08-11T02:02:02.157Z,19.30
2022-08-11T02:04:37.048Z,19.20
2022-08-11T02:07:18.113Z,19.30
2022-08-11T02:10:29.630Z,19.20
2022-08-11T02:13:15.663Z,19.10
2022-08-11T02:15:51.317Z,19.10
2022-08-11T02:18:48.911Z,19.10
2022-08-11T02:21:48.131Z,19.10
2022-08-11T02:24:27.912Z,19.10
2022-08-11T02:27:15.008Z,19.00
2022-08-11T02:29:55.920Z,19.00
2022-08-11T02:32:51.389Z,19.00
2022-08-11T02:35:26.557Z,18.90
2022-08-11T02:38:13.349Z,18.90
2022-08-11T02:40:54.473Z,18.80
2022-08-11T02:43:48.006Z,18.90
2022-08-11T02:46:28.801Z,18.80
2022-08-11T02:49:31.625Z,18.80
2022-08-11T02:52:09.752Z,18.70
2022-08-11T02:54:46.106Z,18.60
2022-08-11T02:57:34.966Z,18.60
2022-08-11T03:00:09.203Z,18.60
2022-08-11T03:02:52.624Z,18.50
2022-08-11T03:05:43.358Z,18.50
2022-08-11T03:08:37.308Z,18.50
2022-08-11T03:11:30.864Z,18.50
2022-08-11T03:14:38.077Z,18.40
2022-08-11T03:17:22.833Z,18.40
2022-08-11T03:20:05.756Z,18.40
2022-08-11T03:22:41.591Z,18.30
2022-08-11T03:25:19.374Z,18.30
2022-08-11T03:27:58.976Z,18.30
2022-08-11T03:30:45.672Z,18.20
2022-08-11T03:33:42.030Z,18.20
2022-08-11T03:36:33.777Z,18.20
2022-08-11T03:39:32.157Z,18.10
2022-08-11T03:42:12.490Z,18.10
2022-08-11T03:45:01.053Z,18.00
2022-08-11T03:48:02.109Z,18.00
2022-08-11T03:50:54.969Z,18.00
2022-08-11T03:53:45.295Z,18.00
2022-08-11T03:57:10.964Z,17.90
2022-08-11T04:00:20.540Z,17.90
2022-08-11T04:03:41.730Z,17.80
2022-08-11T04:06:47.551Z,17.90
2022-08-11T04:10:08.463Z,17.90
2022-08-11T04:13:14.185Z,17.80
2022-08-11T04:16:24.354Z,17.80
2022-08-11T04:19:51.540Z,17.80
2022-08-11T04:23:10.161Z,17.80
2022-08-11T04:26:27.163Z,17.80
2022-08-11T04:29:12.008Z,17.80
2022-08-11T04:31:55.348Z,17.80
2022-08-11T04:34:52.752Z,17.80
2022-08-11T04:37:53.701Z,17.90
2022-08-11T04:41:16.370Z,17.90
2022-08-11T04:44:31.779Z,18.00
2022-08-11T04:48:03.759Z,17.90
2022-08-11T04:51:17.222Z,17.90
2022-08-11T04:54:19.336Z,17.90
2022-08-11T04:57:09.530Z,18.00
2022-08-11T05:00:31.673Z,18.00
2022-08-11T05:03:57.214Z,18.00
2022-08-11T05:07:21.935Z,18.00
2022-08-11T05:10:15.462Z,18.10
2022-08-11T05:12:50.872Z,18.10
2022-08-11T05:15:49.527Z,18.20
2022-08-11T05:18:42.788Z,18.20
2022-08-11T05:21:44.414Z,18.30
2022-08-11T05:24:39.862Z,18.30
2022-08-11T05:27:28.525Z,18.40
2022-08-11T05:30:20.954Z,18.40
2022-08-11T05:33:20.421Z,18.40
2022-08-11T05:36:00.131Z,18.40
2022-08-11T05:38:53.511Z,18.50
2022-08-11T05:41:45.603Z,18.50
2022-08-11T05:44:39.071Z,18.60
2022-08-11T05:47:27.557Z,18.50
2022-08-11T05:50:15.264Z,18.50
2022-08-11T05:53:09.158Z,18.60
2022-08-11T05:56:02.876Z,18.70
2022-08-11T05:58:42.806Z,18.70
2022-08-11T06:01:14.119Z,18.80
2022-08-11T06:04:04.185Z,18.80
2022-08-11T06:06:33.318Z,18.90
2022-08-11T06:09:02.907Z,18.90
2022-08-11T06:11:43.527Z,19.00
2022-08-11T06:14:15.970Z,19.10
2022-08-11T06:16:49.572Z,19.10
2022-08-11T06:19:23.130Z,19.20
2022-08-11T06:21:53.255Z,19.30
2022-08-11T06:24:22.925Z,19.40
2022-08-11T06:27:12.645Z,19.40
2022-08-11T06:29:54.355Z,19.50
2022-08-11T06:32:28.309Z,19.60
2022-08-11T06:35:16.909Z,19.70
2022-08-11T06:38:03.522Z,19.80
2022-08-11T06:40:42.985Z,19.80
2022-08-11T06:43:19.980Z,20.00
2022-08-11T06:46:03.328Z,20.10
2022-08-11T06:48:34.679Z,20.10
2022-08-11T06:51:14.609Z,20.20
2022-08-11T06:54:03.872Z,20.40
2022-08-11T06:57:28.300Z,20.40
2022-08-11T07:00:02.173Z,20.50
2022-08-11T07:02:35.608Z,20.70
2022-08-11T07:05:11.004Z,20.70
2022-08-11T07:08:52.668Z,20.90
2022-08-11T07:12:13.187Z,20.90
2022-08-11T07:15:07.693Z,21.10
2022-08-11T07:17:49.416Z,21.20
2022-08-11T07:20:37.239Z,21.30
2022-08-11T07:23:26.802Z,21.50
2022-08-11T07:26:15.170Z,21.80
2022-08-11T07:28:58.642Z,22.50
2022-08-11T07:31:42.063Z,23.50
2022-08-11T07:34:28.061Z,24.70
2022-08-11T07:37:00.305Z,25.80
2022-08-11T07:39:32.872Z,26.70
2022-08-11T07:42:07.128Z,27.30
2022-08-11T07:44:58.757Z,27.80
2022-08-11T07:47:55.146Z,28.30
2022-08-11T07:50:43.201Z,28.80
2022-08-11T07:53:12.890Z,29.10
2022-08-11T07:55:50.919Z,29.20
2022-08-11T07:58:45.509Z,29.50
2022-08-11T08:01:41.738Z,29.60
2022-08-11T08:04:31.386Z,29.80
2022-08-11T08:07:22.169Z,29.90
2022-08-11T08:10:09.780Z,29.90
2022-08-11T08:13:00.355Z,29.90
2022-08-11T08:15:48.422Z,29.90
2022-08-11T08:18:26.487Z,29.90
2022-08-11T08:21:11.979Z,29.90
2022-08-11T08:23:44.175Z,30.00
2022-08-11T08:26:35.162Z,30.00
2022-08-11T08:29:26.056Z,30.20
2022-08-11T08:31:57.231Z,30.50
2022-08-11T08:34:26.483Z,30.60
2022-08-11T08:36:55.800Z,30.90
2022-08-11T08:39:25.940Z,31.20
2022-08-11T08:42:00.358Z,31.40
2022-08-11T08:44:40.529Z,31.60
2022-08-11T08:47:15.101Z,31.80
2022-08-11T08:50:08.236Z,32.00
2022-08-11T08:52:43.895Z,32.10
2022-08-11T08:55:21.612Z,32.30
2022-08-11T08:57:53.689Z,32.30
2022-08-11T09:00:23.852Z,32.20
2022-08-11T09:02:53.590Z,32.40
2022-08-11T09:05:23.393Z,32.60
2022-08-11T09:07:58.038Z,32.80
2022-08-11T09:10:30.945Z,32.70
2022-08-11T09:13:00.987Z,32.70
2022-08-11T09:15:30.747Z,32.90
2022-08-11T09:18:06.012Z,33.10
2022-08-11T09:20:38.583Z,33.30
2022-08-11T09:26:41.711Z,33.50
2022-08-11T09:29:12.422Z,33.70
2022-08-11T09:31:41.821Z,33.90
2022-08-11T09:34:11.535Z,34.10
2022-08-11T09:36:59.916Z,34.40
2022-08-11T09:39:48.653Z,34.70
2022-08-11T09:42:23.108Z,34.40
2022-08-11T09:44:53.255Z,34.00
2022-08-11T09:47:26.590Z,34.10
2022-08-11T09:50:01.363Z,34.40
2022-08-11T09:52:35.682Z,34.80
2022-08-11T09:55:11.112Z,35.10
2022-08-11T09:58:04.383Z,35.40
2022-08-11T10:00:40.195Z,35.70
2022-08-11T10:03:13.261Z,35.80
2022-08-11T10:06:08.010Z,35.70
2022-08-11T10:08:39.133Z,35.60
2022-08-11T10:11:12.052Z,35.30
2022-08-11T10:14:32.910Z,35.20
2022-08-11T10:16:53.894Z,35.20
2022-08-11T10:19:23.117Z,35.30
2022-08-11T10:22:09.325Z,35.30
2022-08-11T10:24:56.265Z,35.50
2022-08-11T10:27:34.790Z,35.60
2022-08-11T10:30:32.893Z,35.60
2022-08-11T10:33:37.048Z,35.70
2022-08-11T10:36:16.519Z,35.80
2022-08-11T10:38:50.344Z,36.00
2022-08-11T10:41:37.125Z,35.90
2022-08-11T10:44:25.657Z,36.00
2022-08-11T10:47:13.318Z,36.20
2022-08-11T10:49:42.314Z,36.30
2022-08-11T10:52:29.603Z,36.30
2022-08-11T10:55:15.969Z,36.40
2022-08-11T10:58:04.727Z,36.50
2022-08-11T11:00:34.977Z,36.50
2022-08-11T11:03:22.611Z,36.30
2022-08-11T11:06:27.219Z,36.30
2022-08-11T11:09:00.016Z,36.40
2022-08-11T11:11:56.446Z,36.10
2022-08-11T11:14:50.752Z,36.00
2022-08-11T11:17:48.570Z,35.90
2022-08-11T11:20:34.736Z,36.10
2022-08-11T11:23:16.707Z,36.20
2022-08-11T11:26:11.314Z,36.30
2022-08-11T11:29:21.443Z,36.40
2022-08-11T11:32:07.551Z,36.40
2022-08-11T11:34:59.351Z,36.50
2022-08-11T11:37:34.549Z,36.80
2022-08-11T11:40:04.318Z,36.90
2022-08-11T11:42:32.963Z,37.10
2022-08-11T11:45:01.843Z,37.20
2022-08-11T11:47:31.387Z,37.10
2022-08-11T11:50:00.233Z,37.20
2022-08-11T11:52:31.372Z,37.40
2022-08-11T11:55:00.946Z,37.60
2022-08-11T11:57:59.388Z,37.60
2022-08-11T12:00:48.888Z,37.70
2022-08-11T12:03:19.080Z,37.70
2022-08-11T12:05:48.208Z,37.70
2022-08-11T12:08:22.392Z,37.90
2022-08-11T12:11:16.166Z,37.90
2022-08-11T12:13:47.196Z,38.00
2022-08-11T12:16:32.871Z,37.80
2022-08-11T12:19:07.126Z,37.60
2022-08-11T12:21:37.560Z,37.20
2022-08-11T12:24:29.123Z,37.20
2022-08-11T12:27:18.244Z,37.40
2022-08-11T12:29:55.040Z,37.70
2022-08-11T12:32:26.863Z,37.90
2022-08-11T12:34:56.928Z,38.10
2022-08-11T12:37:31.284Z,38.20
2022-08-11T12:40:43.099Z,38.20
2022-08-11T12:43:37.986Z,38.20
2022-08-11T12:46:11.142Z,37.80
2022-08-11T12:49:05.492Z,37.60
2022-08-11T12:52:13.915Z,37.80
2022-08-11T12:54:57.258Z,38.10
2022-08-11T12:57:54.574Z,38.40
2022-08-11T13:00:42.410Z,38.80
2022-08-11T13:03:30.517Z,39.10
2022-08-11T13:06:02.544Z,39.20
2022-08-11T13:08:35.398Z,39.30
2022-08-11T13:11:22.925Z,39.50
2022-08-11T13:13:57.945Z,39.70
2022-08-11T13:16:31.108Z,39.70
2022-08-11T13:19:01.860Z,39.90
2022-08-11T13:21:31.632Z,40.00
2022-08-11T13:24:03.588Z,40.10
2022-08-11T13:26:49.747Z,40.20
2022-08-11T13:29:23.837Z,40.30
2022-08-11T13:31:54.400Z,40.30
2022-08-11T13:34:26.814Z,40.20
2022-08-11T13:36:59.315Z,40.20
2022-08-11T13:39:31.056Z,40.20
2022-08-11T13:42:02.961Z,40.20
2022-08-11T13:44:37.798Z,40.10
2022-08-11T13:47:09.226Z,40.10
2022-08-11T13:49:40.396Z,40.10
2022-08-11T13:52:14.793Z,40.40
2022-08-11T13:54:44.995Z,40.40
2022-08-11T13:58:07.706Z,40.40
2022-08-11T14:00:28.136Z,40.50
2022-08-11T14:02:58.629Z,40.80
2022-08-11T14:05:30.242Z,41.00
2022-08-11T14:08:06.038Z,41.10
2022-08-11T14:10:36.780Z,41.20
2022-08-11T14:13:29.141Z,41.10
2022-08-11T14:16:14.117Z,41.20
2022-08-11T14:18:51.333Z,41.30
2022-08-11T14:21:40.161Z,41.40
2022-08-11T14:24:11.533Z,41.60
2022-08-11T14:26:44.277Z,41.50
2022-08-11T14:29:17.245Z,41.40
2022-08-11T14:31:50.177Z,41.20
2022-08-11T14:34:22.240Z,41.10
2022-08-11T14:36:53.764Z,40.90
2022-08-11T14:39:25.319Z,40.90
2022-08-11T14:42:14.436Z,41.00
2022-08-11T14:45:05.060Z,41.10
2022-08-11T14:47:37.526Z,41.20
2022-08-11T14:50:12.473Z,41.20
2022-08-11T14:52:50.081Z,41.10
2022-08-11T14:55:37.968Z,40.90
2022-08-11T14:58:09.802Z,40.60
2022-08-11T15:00:40.349Z,40.50
2022-08-11T15:03:13.403Z,40.50
2022-08-11T15:05:56.318Z,40.60
2022-08-11T15:08:50.217Z,40.60
2022-08-11T15:11:39.292Z,40.70
2022-08-11T15:14:10.932Z,40.50
2022-08-11T15:17:01.484Z,40.60
2022-08-11T15:19:40.404Z,40.70
2022-08-11T15:22:29.152Z,40.60
2022-08-11T15:25:00.103Z,40.50
2022-08-11T15:27:49.505Z,40.50
2022-08-11T15:30:35.667Z,40.30
2022-08-11T15:33:30.039Z,40.10
2022-08-11T15:36:20.549Z,40.10
2022-08-11T15:38:55.762Z,40.10
2022-08-11T15:41:58.512Z,40.20
2022-08-11T15:45:05.471Z,40.20
2022-08-11T15:47:41.719Z,40.30
2022-08-11T15:50:17.365Z,40.10
2022-08-11T15:52:54.462Z,39.90
2022-08-11T15:55:24.571Z,39.60
2022-08-11T15:58:14.120Z,39.20
2022-08-11T16:01:08.628Z,38.80
2022-08-11T16:04:09.080Z,38.60
2022-08-11T16:06:47.812Z,38.70
2022-08-11T16:09:46.965Z,38.70
2022-08-11T16:12:22.915Z,38.80
2022-08-11T16:15:12.905Z,38.70
2022-08-11T16:17:45.953Z,38.60
2022-08-11T16:20:18.766Z,38.60
2022-08-11T16:22:57.190Z,38.60
2022-08-11T16:27:03.990Z,38.70
2022-08-11T16:28:26.405Z,38.70
2022-08-11T16:30:57.655Z,38.70
2022-08-11T16:33:49.422Z,38.70
2022-08-11T16:36:34.387Z,38.50
2022-08-11T16:39:04.090Z,37.80
2022-08-11T16:41:55.961Z,37.60
2022-08-11T16:44:43.562Z,37.50
2022-08-11T16:47:17.653Z,37.10
2022-08-11T16:50:08.721Z,36.80
2022-08-11T16:52:37.337Z,36.50
2022-08-11T16:55:07.221Z,36.30
2022-08-11T16:57:56.233Z,36.20
2022-08-11T17:00:25.887Z,36.10
2022-08-11T17:03:28.194Z,36.20
2022-08-11T17:06:14.217Z,36.40
2022-08-11T17:09:05.861Z,36.50
2022-08-11T17:11:58.864Z,36.40
2022-08-11T17:14:38.339Z,36.40
2022-08-11T17:17:13.548Z,36.50
2022-08-11T17:20:42.317Z,36.50
2022-08-11T17:22:58.426Z,36.20
2022-08-11T17:25:29.298Z,35.90
2022-08-11T17:28:00.672Z,35.60
2022-08-11T17:30:45.532Z,35.40
2022-08-11T17:33:33.250Z,35.00
2022-08-11T17:36:03.521Z,34.80
2022-08-11T17:38:34.597Z,34.70
2022-08-11T17:41:23.214Z,34.60
2022-08-11T17:44:12.365Z,34.60
2022-08-11T17:47:05.657Z,34.50
2022-08-11T17:49:38.035Z,34.40
2022-08-11T17:52:25.924Z,34.10
2022-08-11T17:55:16.818Z,33.70
2022-08-11T17:58:23.109Z,33.20
2022-08-11T18:00:52.498Z,32.80
2022-08-11T18:03:39.608Z,32.50
2022-08-11T18:06:12.888Z,32.00
2022-08-11T18:09:02.629Z,31.70
2022-08-11T18:12:11.132Z,31.30
2022-08-11T18:15:00.738Z,31.00
2022-08-11T18:20:34.365Z,30.40
2022-08-11T18:23:41.693Z,30.20
2022-08-11T18:26:36.498Z,30.00
2022-08-11T18:29:25.774Z,29.80
2022-08-11T18:32:20.723Z,29.60
2022-08-11T18:35:10.666Z,29.40
2022-08-11T18:38:05.746Z,29.30
2022-08-11T18:40:54.304Z,29.10
2022-08-11T18:43:44.398Z,29.00
2022-08-11T18:46:36.938Z,28.90
2022-08-11T18:50:01.771Z,28.70
2022-08-11T18:52:41.199Z,28.60
2022-08-11T18:55:34.809Z,28.50
2022-08-11T18:58:24.688Z,28.40
2022-08-11T19:01:16.762Z,28.20
2022-08-11T19:04:11.741Z,28.20
2022-08-11T19:07:04.080Z,28.00
2022-08-11T19:09:52.347Z,27.90
2022-08-11T19:12:43.933Z,27.80
2022-08-11T19:15:31.746Z,27.70
2022-08-11T19:18:20.168Z,27.60
2022-08-11T19:21:06.876Z,27.50
2022-08-11T19:23:57.521Z,27.40
2022-08-11T19:26:44.575Z,27.40
2022-08-11T19:30:07.644Z,27.30
2022-08-11T19:32:40.454Z,27.10
2022-08-11T19:35:28.385Z,27.10
2022-08-11T19:38:17.132Z,26.90
2022-08-11T19:41:03.429Z,26.80
2022-08-11T19:43:51.428Z,26.70
2022-08-11T19:46:42.094Z,26.70
2022-08-11T19:49:30.784Z,26.60
2022-08-11T19:52:18.410Z,26.50
2022-08-11T19:55:05.725Z,26.40
2022-08-11T19:57:54.842Z,26.30
2022-08-11T20:00:42.117Z,26.20
2022-08-11T20:03:31.673Z,26.10
2022-08-11T20:06:21.682Z,26.00
2022-08-11T20:09:11.899Z,25.90
2022-08-11T20:12:01.631Z,25.90
2022-08-11T20:14:52.303Z,25.80
2022-08-11T20:17:43.134Z,25.70
2022-08-11T20:20:33.509Z,25.50
2022-08-11T20:23:24.845Z,25.40
2022-08-11T20:26:30.101Z,25.40
2022-08-11T20:29:18.795Z,25.30
2022-08-11T20:32:09.263Z,25.20
2022-08-11T20:34:58.743Z,25.10
2022-08-11T20:37:51.036Z,25.10
2022-08-11T20:40:42.481Z,25.00
2022-08-11T20:44:07.657Z,25.00
2022-08-11T20:49:53.625Z,24.70
2022-08-11T20:52:48.408Z,24.60
2022-08-11T20:55:51.634Z,24.60
2022-08-11T21:01:47.114Z,24.40
2022-08-11T21:04:55.086Z,24.30
2022-08-11T21:07:55.178Z,24.30
2022-08-11T21:10:50.604Z,24.20
2022-08-11T21:13:42.083Z,24.10
2022-08-11T21:16:32.193Z,24.10
2022-08-11T21:20:00.793Z,24.00
2022-08-11T21:22:58.565Z,23.90
2022-08-11T21:25:48.197Z,23.80
2022-08-11T21:28:36.969Z,23.70
2022-08-11T21:31:25.275Z,23.70
2022-08-11T21:34:12.268Z,23.60
2022-08-11T21:37:00.973Z,23.60
2022-08-11T21:39:47.847Z,23.60
2022-08-11T21:42:38.109Z,23.50
2022-08-11T21:45:27.688Z,22.70
2022-08-11T21:48:15.366Z,23.50
2022-08-11T21:51:01.456Z,23.40
2022-08-11T21:53:47.777Z,23.40
2022-08-11T21:56:34.422Z,23.30
2022-08-11T21:59:21.972Z,23.30
2022-08-11T22:02:12.559Z,23.20
2022-08-11T22:05:00.174Z,23.20
2022-08-11T22:07:46.971Z,23.10
2022-08-11T22:10:40.689Z,23.10
2022-08-11T22:13:31.135Z,23.00
2022-08-11T22:16:19.294Z,23.00
2022-08-11T22:19:08.240Z,22.90
2022-08-11T22:22:02.910Z,22.90
2022-08-11T22:24:52.755Z,22.80
2022-08-11T22:27:40.041Z,22.70
2022-08-11T22:30:29.694Z,22.70
2022-08-11T22:33:25.615Z,22.60
2022-08-11T22:36:14.766Z,22.60
2022-08-11T22:39:03.453Z,22.50
2022-08-11T22:41:49.639Z,22.50
2022-08-11T22:47:23.585Z,22.30
2022-08-11T22:50:16.881Z,22.30
2022-08-11T22:53:03.630Z,22.30
2022-08-11T22:55:50.300Z,22.20
2022-08-11T22:58:40.264Z,22.20
2022-08-11T23:01:26.512Z,23.80
2022-08-11T23:04:15.073Z,22.20
2022-08-11T23:07:03.034Z,22.20
2022-08-11T23:09:49.646Z,22.20
2022-08-11T23:12:36.426Z,22.20
2022-08-11T23:15:24.517Z,22.20
2022-08-11T23:18:10.754Z,22.20
2022-08-11T23:20:58.930Z,22.20
2022-08-11T23:23:48.089Z,22.20
2022-08-11T23:26:36.679Z,22.20
2022-08-11T23:29:25.170Z,22.30
2022-08-11T23:32:12.422Z,22.30
2022-08-11T23:35:37.099Z,22.40
2022-08-11T23:38:09.065Z,22.40
2022-08-11T23:40:58.530Z,22.40
2022-08-11T23:43:44.229Z,22.40
2022-08-11T23:49:20.567Z,22.40
2022-08-11T23:52:07.623Z,22.40
2022-08-11T23:54:54.368Z,24.30
2022-08-11T23:57:47.811Z,22.30
